createdAt,value
2019-05-09T00:00:26.362Z,153112.61
2019-05-09T00:02:54.845Z,153128.37
2019-05-09T00:05:25.469Z,153094.17
2019-05-09T00:07:53.548Z,153073.13
2019-05-09T00:10:38.126Z,153053.37
2019-05-09T00:12:54.044Z,153052.06
2019-05-09T00:15:24.189Z,153032.33
2019-05-09T00:17:53.346Z,153027.09
2019-05-09T00:20:29.656Z,153037.63
2019-05-09T00:22:58.149Z,153028.41
2019-05-09T00:25:26.633Z,153016.56
2019-05-09T00:27:55.121Z,153032.33
2019-05-09T00:30:43.660Z,153017.88
2019-05-09T00:33:14.282Z,153002.06
2019-05-09T00:35:44.235Z,152973.11
2019-05-09T00:38:13.361Z,152970.50
2019-05-09T00:40:55.257Z,152937.56
2019-05-09T00:43:13.211Z,152934.94
2019-05-09T00:45:46.040Z,152944.16
2019-05-09T00:48:16.180Z,152911.23
2019-05-09T00:50:44.641Z,152928.36
2019-05-09T00:53:17.285Z,152919.14
2019-05-09T00:55:45.755Z,152913.91
2019-05-09T00:58:14.577Z,152908.63
2019-05-09T01:00:43.992Z,152925.73
2019-05-09T01:03:14.124Z,152909.92
2019-05-09T01:05:43.624Z,152904.69
2019-05-09T01:08:13.697Z,152906.00
2019-05-09T01:10:43.600Z,152920.45
2019-05-09T01:13:14.163Z,152906.00
2019-05-09T01:15:44.040Z,152913.91
2019-05-09T01:18:13.249Z,152912.59
2019-05-09T01:20:43.905Z,152908.63
2019-05-09T01:23:14.184Z,152909.92
2019-05-09T01:25:43.590Z,152911.23
2019-05-09T01:28:13.958Z,152917.83
2019-05-09T01:30:43.984Z,152916.53
2019-05-09T01:33:24.180Z,152898.09
2019-05-09T01:35:54.074Z,152909.92
2019-05-09T01:38:23.297Z,152907.31
2019-05-09T01:40:53.307Z,152915.22
2019-05-09T01:43:24.240Z,152911.23
2019-05-09T01:45:54.076Z,152904.69
2019-05-09T01:48:23.445Z,152915.22
2019-05-09T01:50:53.736Z,152923.13
2019-05-09T01:53:24.120Z,152908.63
2019-05-09T01:55:58.593Z,152920.45
2019-05-09T01:58:34.058Z,152938.87
2019-05-09T02:01:04.255Z,152946.78
2019-05-09T02:03:33.657Z,152920.45
2019-05-09T02:06:03.545Z,152942.80
2019-05-09T02:08:34.434Z,152946.78
2019-05-09T02:11:03.777Z,152933.64
2019-05-09T02:13:33.810Z,152937.56
2019-05-09T02:16:06.937Z,152941.50
2019-05-09T02:18:37.027Z,152946.78
2019-05-09T02:21:05.508Z,152938.87
2019-05-09T02:23:34.072Z,152949.39
2019-05-09T02:26:04.036Z,152952.02
2019-05-09T02:28:34.172Z,152958.66
2019-05-09T02:31:05.230Z,152959.97
2019-05-09T02:33:34.776Z,152958.66
2019-05-09T02:36:03.192Z,152950.70
2019-05-09T02:38:31.671Z,152954.73
2019-05-09T02:41:00.159Z,152954.73
2019-05-09T02:43:29.223Z,152957.34
2019-05-09T02:46:11.517Z,152963.91
2019-05-09T02:48:39.993Z,152961.28
2019-05-09T02:51:09.395Z,152950.70
2019-05-09T02:53:39.483Z,152949.39
2019-05-09T02:56:09.149Z,152941.50
2019-05-09T02:58:48.332Z,152941.50
2019-05-09T03:01:18.951Z,152930.97
2019-05-09T03:03:48.278Z,152930.97
2019-05-09T03:06:19.654Z,152925.73
2019-05-09T03:08:49.062Z,152936.25
2019-05-09T03:11:18.752Z,152924.42
2019-05-09T03:13:49.509Z,152916.53
2019-05-09T03:16:19.041Z,152915.22
2019-05-09T03:18:49.418Z,152930.97
2019-05-09T03:21:19.674Z,152924.42
2019-05-09T03:23:49.009Z,152915.22
2019-05-09T03:26:19.599Z,152902.03
2019-05-09T03:28:49.930Z,152888.89
2019-05-09T03:31:20.065Z,152899.41
2019-05-09T03:33:50.042Z,152890.19
2019-05-09T03:36:18.735Z,152890.19
2019-05-09T03:38:47.630Z,152915.22
2019-05-09T03:41:17.692Z,152899.41
2019-05-09T03:43:48.289Z,152912.59
2019-05-09T03:46:28.047Z,152894.17
2019-05-09T03:49:00.774Z,152896.78
2019-05-09T03:51:29.250Z,152892.86
2019-05-09T03:53:57.773Z,152891.50
2019-05-09T03:56:31.499Z,152891.50
2019-05-09T03:58:59.965Z,152890.19
2019-05-09T04:01:28.769Z,152888.89
2019-05-09T04:03:58.392Z,152883.66
2019-05-09T04:06:28.232Z,152892.86
2019-05-09T04:08:58.474Z,152896.78
2019-05-09T04:11:27.650Z,152907.31
2019-05-09T04:13:58.540Z,152909.92
2019-05-09T04:16:27.678Z,152887.58
2019-05-09T04:18:58.184Z,152902.03
2019-05-09T04:21:28.011Z,152920.45
2019-05-09T04:23:58.509Z,152906.00
2019-05-09T04:26:28.548Z,152917.83
2019-05-09T04:28:57.787Z,152923.13
2019-05-09T04:31:28.032Z,152917.83
2019-05-09T04:33:57.439Z,152924.42
2019-05-09T04:36:41.168Z,152917.83
2019-05-09T04:39:18.046Z,152944.16
2019-05-09T04:41:42.400Z,152916.53
2019-05-09T04:44:16.966Z,152937.56
2019-05-09T04:46:42.765Z,152941.50
2019-05-09T04:49:11.255Z,152934.94
2019-05-09T04:51:39.707Z,152941.50
2019-05-09T04:54:08.192Z,152952.02
2019-05-09T04:56:38.351Z,152959.97
2019-05-09T04:59:07.558Z,152952.02
2019-05-09T05:01:38.959Z,152957.34
2019-05-09T05:04:07.980Z,152979.70
2019-05-09T05:06:40.260Z,152962.59
2019-05-09T05:09:08.733Z,152970.50
2019-05-09T05:11:38.319Z,152969.19
2019-05-09T05:14:09.277Z,152952.02
2019-05-09T05:16:39.161Z,152975.78
2019-05-09T05:19:07.658Z,152991.53
2019-05-09T05:21:37.793Z,152983.63
2019-05-09T05:24:08.304Z,152982.33
2019-05-09T05:26:38.031Z,152991.53
2019-05-09T05:29:08.451Z,152996.83
2019-05-09T05:31:38.812Z,152994.16
2019-05-09T05:34:11.576Z,152983.63
2019-05-09T05:36:40.046Z,153007.34
2019-05-09T05:39:10.072Z,152994.16
2019-05-09T05:41:38.552Z,153009.97
2019-05-09T05:44:08.542Z,153013.91
2019-05-09T05:46:55.391Z,153012.59
2019-05-09T05:49:23.872Z,153025.73
2019-05-09T05:51:52.343Z,153033.64
2019-05-09T05:54:22.154Z,153028.41
2019-05-09T05:56:50.776Z,153049.45
2019-05-09T05:59:19.504Z,153054.69
2019-05-09T06:01:48.085Z,153056.00
2019-05-09T06:04:18.624Z,153046.78
2019-05-09T06:06:48.085Z,153065.22
2019-05-09T06:09:18.958Z,153065.22
2019-05-09T06:11:48.448Z,153058.66
2019-05-09T06:14:18.456Z,153053.37
2019-05-09T06:16:48.555Z,153062.59
2019-05-09T06:19:17.987Z,153067.83
2019-05-09T06:21:48.559Z,153078.36
2019-05-09T06:24:17.813Z,153086.27
2019-05-09T06:26:47.901Z,153102.08
2019-05-09T06:29:17.821Z,153104.70
2019-05-09T06:31:48.447Z,153111.30
2019-05-09T06:34:18.807Z,153123.14
2019-05-09T06:36:48.885Z,153178.41
2019-05-09T06:39:17.965Z,153195.53
2019-05-09T06:41:48.341Z,153175.78
2019-05-09T06:44:24.126Z,153175.78
2019-05-09T06:47:00.204Z,153150.75
2019-05-09T06:49:31.945Z,153167.88
2019-05-09T06:52:00.657Z,153178.41
2019-05-09T06:54:29.264Z,153181.03
2019-05-09T06:56:58.604Z,153177.09
2019-05-09T06:59:28.341Z,153221.84
2019-05-09T07:01:58.727Z,153210.00
2019-05-09T07:04:43.780Z,153213.97
2019-05-09T07:07:17.630Z,153225.81
2019-05-09T07:09:48.159Z,153242.91
2019-05-09T07:12:18.084Z,153221.84
2019-05-09T07:14:48.716Z,153240.28
2019-05-09T07:17:18.359Z,153233.69
2019-05-09T07:19:48.772Z,153260.03
2019-05-09T07:22:18.933Z,153278.48
2019-05-09T07:25:06.503Z,153270.56
2019-05-09T07:27:39.187Z,153278.48
2019-05-09T07:30:37.672Z,153279.84
2019-05-09T07:33:23.068Z,153252.12
2019-05-09T07:35:51.548Z,153231.06
2019-05-09T07:38:30.382Z,153225.81
2019-05-09T07:41:00.059Z,153260.03
2019-05-09T07:43:28.787Z,153220.53
2019-05-09T07:46:08.850Z,153232.38
2019-05-09T07:48:38.685Z,153233.69
2019-05-09T07:51:08.030Z,153232.38
2019-05-09T07:53:38.065Z,153198.16
2019-05-09T07:56:07.990Z,153231.06
2019-05-09T07:58:37.728Z,153245.56
2019-05-09T08:01:08.558Z,153231.06
2019-05-09T08:03:38.424Z,153228.44
2019-05-09T08:06:08.757Z,153266.64
2019-05-09T08:08:38.474Z,153273.19
2019-05-09T08:11:08.829Z,153279.84
2019-05-09T08:13:39.236Z,153307.52
2019-05-09T08:16:12.395Z,153312.75
2019-05-09T08:18:38.012Z,153310.13
2019-05-09T08:21:08.435Z,153315.38
2019-05-09T08:23:37.984Z,153332.50
2019-05-09T08:26:08.833Z,153350.97
2019-05-09T08:28:38.935Z,153387.81
2019-05-09T08:31:08.306Z,153422.09
2019-05-09T08:33:38.046Z,153431.31
2019-05-09T08:36:08.755Z,153482.66
2019-05-09T08:38:39.018Z,153427.34
2019-05-09T08:41:09.313Z,153406.27
2019-05-09T08:43:39.360Z,153420.78
2019-05-09T08:46:08.262Z,153478.72
2019-05-09T08:48:37.826Z,153499.80
2019-05-09T08:51:08.965Z,153552.50
2019-05-09T08:53:38.158Z,153586.86
2019-05-09T08:56:08.976Z,153600.03
2019-05-09T08:58:38.219Z,153655.38
2019-05-09T09:01:09.836Z,153644.83
2019-05-09T09:03:37.771Z,153702.86
2019-05-09T09:06:08.246Z,153726.58
2019-05-09T09:08:37.976Z,153723.95
2019-05-09T09:11:08.558Z,153743.73
2019-05-09T09:13:37.840Z,153693.62
2019-05-09T09:16:15.697Z,153713.41
2019-05-09T09:18:38.772Z,153828.12
2019-05-09T09:21:08.088Z,153821.52
2019-05-09T09:23:44.152Z,153793.81
2019-05-09T09:26:08.201Z,153763.52
2019-05-09T09:28:37.977Z,153768.77
2019-05-09T09:31:08.221Z,153791.17
2019-05-09T09:33:37.646Z,153840.00
2019-05-09T09:36:08.563Z,153965.37
2019-05-09T09:38:37.566Z,154243.97
2019-05-09T09:41:07.841Z,154382.69
2019-05-09T09:43:38.388Z,154335.06
2019-05-09T09:46:14.057Z,154302.05
2019-05-09T09:48:38.925Z,154258.47
2019-05-09T09:51:08.108Z,154185.84
2019-05-09T09:53:38.438Z,154180.58
2019-05-09T09:56:08.770Z,154162.09
2019-05-09T09:58:38.026Z,154144.91
2019-05-09T10:01:21.342Z,154080.19
2019-05-09T10:03:51.584Z,154002.28
2019-05-09T10:06:20.047Z,154037.95
2019-05-09T10:08:49.100Z,154048.50
2019-05-09T10:11:18.047Z,153982.53
2019-05-09T10:13:48.089Z,153968.00
2019-05-09T10:16:31.927Z,153953.50
2019-05-09T10:19:02.869Z,153920.53
2019-05-09T10:21:32.996Z,153927.09
2019-05-09T10:24:01.478Z,153873.02
2019-05-09T10:26:29.971Z,153846.59
2019-05-09T10:28:58.536Z,153840.00
2019-05-09T10:31:28.267Z,153871.70
2019-05-09T10:33:58.054Z,153912.59
2019-05-09T10:36:27.838Z,153917.84
2019-05-09T10:38:58.504Z,153995.72
2019-05-09T10:41:26.687Z,154111.86
2019-05-09T10:43:57.872Z,154122.47
2019-05-09T10:46:46.336Z,154136.97
2019-05-09T10:49:00.009Z,154163.41
2019-05-09T10:51:28.566Z,154121.16
2019-05-09T10:53:58.804Z,154074.88
2019-05-09T10:56:28.035Z,154086.80
2019-05-09T10:58:58.424Z,154053.77
2019-05-09T11:01:29.491Z,154045.88
2019-05-09T11:03:58.967Z,153932.39
2019-05-09T11:06:28.772Z,153876.95
2019-05-09T11:08:58.560Z,153789.87
2019-05-09T11:11:28.463Z,153758.22
2019-05-09T11:13:58.785Z,153751.61
2019-05-09T11:16:41.294Z,153729.19
2019-05-09T11:18:58.490Z,153692.31
2019-05-09T11:21:28.538Z,153640.89
2019-05-09T11:23:58.281Z,153635.59
2019-05-09T11:26:28.415Z,153647.45
2019-05-09T11:28:58.783Z,153623.73
2019-05-09T11:31:29.518Z,153549.88
2019-05-09T11:33:58.159Z,153578.94
2019-05-09T11:36:26.785Z,153549.88
2019-05-09T11:38:55.257Z,153541.97
2019-05-09T11:41:23.769Z,153596.05
2019-05-09T11:43:52.223Z,153613.19
2019-05-09T11:46:20.729Z,153661.98
2019-05-09T11:48:49.229Z,153687.00
2019-05-09T11:51:20.582Z,153775.37
2019-05-09T11:53:48.768Z,153816.27
2019-05-09T11:56:18.137Z,153781.94
2019-05-09T11:58:48.179Z,153788.56
2019-05-09T12:01:19.095Z,153814.91
2019-05-09T12:03:49.917Z,153791.17
2019-05-09T12:06:20.206Z,153871.70
2019-05-09T12:08:48.438Z,153855.80
2019-05-09T12:11:18.151Z,153880.94
2019-05-09T12:13:48.496Z,153892.80
2019-05-09T12:16:18.377Z,153937.64
2019-05-09T12:18:49.060Z,153942.94
2019-05-09T12:21:19.170Z,153907.30
2019-05-09T12:23:48.775Z,153970.62
2019-05-09T12:26:18.050Z,154003.66
2019-05-09T12:28:48.403Z,153917.84
2019-05-09T12:31:18.087Z,153917.84
2019-05-09T12:33:48.280Z,153954.81
2019-05-09T12:36:19.178Z,153985.17
2019-05-09T12:38:49.674Z,153981.17
2019-05-09T12:41:18.917Z,154007.59
2019-05-09T12:43:47.816Z,153985.17
2019-05-09T12:46:16.291Z,154014.22
2019-05-09T12:48:44.759Z,153986.48
2019-05-09T12:51:13.335Z,153987.80
2019-05-09T12:53:41.812Z,154000.97
2019-05-09T12:56:11.088Z,153990.42
2019-05-09T12:58:39.569Z,154011.53
2019-05-09T13:01:08.039Z,153974.61
2019-05-09T13:03:38.176Z,154023.45
2019-05-09T13:06:08.142Z,154030.02
2019-05-09T13:08:38.472Z,154016.84
2019-05-09T13:11:08.056Z,154027.39
2019-05-09T13:13:40.890Z,154032.64
2019-05-09T13:16:14.131Z,154010.22
2019-05-09T13:19:02.475Z,154022.09
2019-05-09T13:21:32.897Z,153997.03
2019-05-09T13:23:59.988Z,153998.34
2019-05-09T13:26:28.970Z,154003.66
2019-05-09T13:28:58.843Z,154024.77
2019-05-09T13:31:29.403Z,154032.64
2019-05-09T13:33:58.669Z,154053.77
2019-05-09T13:36:28.450Z,154069.63
2019-05-09T13:39:04.216Z,154073.56
2019-05-09T13:41:27.486Z,154074.88
2019-05-09T13:43:59.375Z,154072.25
2019-05-09T13:46:28.255Z,154090.75
2019-05-09T13:49:08.261Z,154080.19
2019-05-09T13:51:26.714Z,154085.44
2019-05-09T13:53:55.293Z,154134.34
2019-05-09T13:56:23.952Z,154138.34
2019-05-09T13:58:52.450Z,154138.34
2019-05-09T14:01:20.945Z,154099.98
2019-05-09T14:03:49.500Z,154122.47
2019-05-09T14:06:17.989Z,154097.36
2019-05-09T14:08:48.962Z,154106.61
2019-05-09T14:11:19.064Z,154053.77
2019-05-09T14:13:48.830Z,154082.81
2019-05-09T14:16:22.167Z,154073.56
2019-05-09T14:18:48.609Z,154059.06
2019-05-09T14:21:21.555Z,154072.25
2019-05-09T14:24:01.047Z,154070.94
2019-05-09T14:26:18.186Z,154064.31
2019-05-09T14:28:48.898Z,154088.11
2019-05-09T14:31:18.580Z,154105.23
2019-05-09T14:33:47.778Z,154106.61
2019-05-09T14:36:16.504Z,154142.28
2019-05-09T14:38:45.061Z,154140.97
2019-05-09T14:41:13.530Z,154154.16
2019-05-09T14:43:42.064Z,154143.59
2019-05-09T14:46:10.480Z,154110.55
2019-05-09T14:48:38.973Z,154110.55
2019-05-09T14:51:07.835Z,154122.47
2019-05-09T14:53:38.918Z,154146.22
2019-05-09T14:56:08.746Z,154167.34
2019-05-09T14:58:38.837Z,154193.78
2019-05-09T15:01:08.589Z,154162.09
2019-05-09T15:03:38.833Z,154177.91
2019-05-09T15:06:07.703Z,154171.33
2019-05-09T15:08:38.164Z,154170.02
2019-05-09T15:11:09.848Z,154177.91
2019-05-09T15:13:36.655Z,154154.16
2019-05-09T15:16:05.131Z,154151.53
2019-05-09T15:18:33.607Z,154147.53
2019-05-09T15:21:02.102Z,154146.22
2019-05-09T15:23:30.603Z,154168.66
2019-05-09T15:25:59.096Z,154175.28
2019-05-09T15:28:29.089Z,154177.91
2019-05-09T15:30:59.330Z,154158.09
2019-05-09T15:33:28.096Z,154147.53
2019-05-09T15:35:58.884Z,154142.28
2019-05-09T15:38:29.039Z,154130.41
2019-05-09T15:40:57.459Z,154135.66
2019-05-09T15:43:26.679Z,154126.41
2019-05-09T15:46:02.966Z,154122.47
2019-05-09T15:48:31.426Z,154143.59
2019-05-09T15:50:59.907Z,154139.66
2019-05-09T15:53:28.375Z,154154.16
2019-05-09T15:55:58.763Z,154158.09
2019-05-09T15:58:28.762Z,154164.72
2019-05-09T16:00:58.983Z,154176.59
2019-05-09T16:03:27.986Z,154189.83
2019-05-09T16:05:58.430Z,154175.28
2019-05-09T16:08:28.783Z,154170.02
2019-05-09T16:10:58.103Z,154170.02
2019-05-09T16:13:28.522Z,154170.02
2019-05-09T16:15:57.696Z,154179.27
2019-05-09T16:18:28.649Z,154191.14
2019-05-09T16:20:58.004Z,154204.34
2019-05-09T16:23:28.968Z,154193.78
2019-05-09T16:25:58.574Z,154191.14
2019-05-09T16:28:27.194Z,154200.39
2019-05-09T16:30:55.683Z,154191.14
2019-05-09T16:33:24.142Z,154170.02
2019-05-09T16:35:53.200Z,154170.02
2019-05-09T16:38:21.762Z,154173.97
2019-05-09T16:40:50.267Z,154168.66
2019-05-09T16:43:18.734Z,154163.41
2019-05-09T16:45:47.825Z,154162.09
2019-05-09T16:48:17.883Z,154154.16
2019-05-09T16:50:57.658Z,154163.41
2019-05-09T16:53:18.555Z,154158.09
2019-05-09T16:55:47.281Z,154154.16
2019-05-09T16:58:18.568Z,154164.72
2019-05-09T17:00:54.204Z,154167.34
2019-05-09T17:03:22.681Z,154170.02
2019-05-09T17:05:51.170Z,154177.91
2019-05-09T17:08:19.651Z,154172.66
2019-05-09T17:10:48.814Z,154173.97
2019-05-09T17:13:19.345Z,154179.27
2019-05-09T17:15:48.218Z,154173.97
2019-05-09T17:18:18.953Z,154166.03
2019-05-09T17:21:17.815Z,154154.16
2019-05-09T17:23:35.081Z,154140.97
2019-05-09T17:26:03.631Z,154134.34
2019-05-09T17:28:32.097Z,154131.72
2019-05-09T17:31:00.689Z,154127.78
2019-05-09T17:33:29.149Z,154114.48
2019-05-09T17:35:57.938Z,154098.67
2019-05-09T17:38:27.809Z,154093.38
2019-05-09T17:40:57.727Z,154090.75
2019-05-09T17:43:27.807Z,154088.11
2019-05-09T17:45:58.398Z,154082.81
2019-05-09T17:48:28.543Z,154035.31
2019-05-09T17:50:58.001Z,154045.88
2019-05-09T17:53:29.283Z,154035.31
2019-05-09T17:55:58.675Z,154032.64
2019-05-09T17:58:32.488Z,154037.95
2019-05-09T18:00:57.659Z,154032.64
2019-05-09T18:03:28.886Z,154027.39
2019-05-09T18:05:57.696Z,154011.53
2019-05-09T18:08:28.321Z,153998.34
2019-05-09T18:10:58.240Z,153991.73
2019-05-09T18:13:29.770Z,153982.53
2019-05-09T18:15:57.218Z,153953.50
2019-05-09T18:18:28.155Z,153950.88
2019-05-09T18:20:58.052Z,153958.75
2019-05-09T18:23:28.330Z,153960.06
2019-05-09T18:25:58.522Z,153953.50
2019-05-09T18:28:29.114Z,153948.19
2019-05-09T18:30:58.502Z,153920.53
2019-05-09T18:33:34.832Z,153924.47
2019-05-09T18:36:03.311Z,153898.06
2019-05-09T18:38:33.914Z,153903.36
2019-05-09T18:41:02.762Z,153892.80
2019-05-09T18:43:31.220Z,153867.77
2019-05-09T18:45:59.700Z,153850.55
2019-05-09T18:48:28.191Z,153836.00
2019-05-09T18:50:56.655Z,153832.06
2019-05-09T18:53:25.133Z,153822.83
2019-05-09T18:55:53.590Z,153816.27
2019-05-09T18:58:22.114Z,153803.03
2019-05-09T19:00:51.160Z,153813.59
2019-05-09T19:03:19.643Z,153783.25
2019-05-09T19:05:48.116Z,153775.37
2019-05-09T19:08:16.597Z,153778.00
2019-05-09T19:10:45.077Z,153776.69
2019-05-09T19:13:13.591Z,153771.39
2019-05-09T19:15:43.713Z,153760.84
2019-05-09T19:18:13.841Z,153760.84
2019-05-09T19:20:59.121Z,153742.38
2019-05-09T19:23:27.737Z,153746.36
2019-05-09T19:25:57.826Z,153739.75
2019-05-09T19:28:26.305Z,153739.75
2019-05-09T19:30:54.783Z,153745.05
2019-05-09T19:33:23.269Z,153731.81
2019-05-09T19:35:51.746Z,153717.34
2019-05-09T19:38:20.271Z,153706.80
2019-05-09T19:40:48.707Z,153705.47
2019-05-09T19:43:17.179Z,153705.47
2019-05-09T19:45:45.667Z,153700.19
2019-05-09T19:48:14.215Z,153665.92
2019-05-09T19:50:42.709Z,153676.47
2019-05-09T19:53:11.181Z,153672.53
2019-05-09T19:55:39.815Z,153663.30
2019-05-09T19:58:08.346Z,153671.22
2019-05-09T20:00:36.870Z,153650.13
2019-05-09T20:03:05.349Z,153642.20
2019-05-09T20:05:33.839Z,153644.83
2019-05-09T20:08:02.306Z,153639.58
2019-05-09T20:10:48.482Z,153621.12
2019-05-09T20:13:18.617Z,153613.19
2019-05-09T20:15:47.106Z,153589.48
2019-05-09T20:18:19.986Z,153564.36
2019-05-09T20:20:49.543Z,153573.59
2019-05-09T20:23:18.020Z,153559.13
2019-05-09T20:25:46.507Z,153556.50
2019-05-09T20:28:15.113Z,153552.50
2019-05-09T20:30:43.647Z,153536.72
2019-05-09T20:33:12.150Z,153520.88
2019-05-09T20:35:40.815Z,153519.56
2019-05-09T20:38:09.426Z,153507.72
2019-05-09T20:40:38.650Z,153515.64
2019-05-09T20:43:07.308Z,153494.56
2019-05-09T20:45:35.973Z,153478.72
2019-05-09T20:48:05.364Z,153484.02
2019-05-09T20:50:34.412Z,153480.03
2019-05-09T20:53:09.481Z,153473.47
2019-05-09T20:55:35.423Z,153444.48
2019-05-09T20:58:05.328Z,153427.34
2019-05-09T21:00:34.026Z,153414.17
2019-05-09T21:03:02.743Z,153402.33
2019-05-09T21:05:31.429Z,153399.66
2019-05-09T21:08:00.076Z,153406.27
2019-05-09T21:10:28.755Z,153397.03
2019-05-09T21:12:57.418Z,153402.33
2019-05-09T21:15:26.107Z,153393.11
2019-05-09T21:17:54.757Z,153391.80
2019-05-09T21:20:23.416Z,153389.13
2019-05-09T21:22:52.059Z,153397.03
2019-05-09T21:25:20.774Z,153398.34
2019-05-09T21:27:49.436Z,153407.58
2019-05-09T21:30:18.529Z,153399.66
2019-05-09T21:32:47.202Z,153403.64
2019-05-09T21:35:15.999Z,153397.03
2019-05-09T21:37:44.500Z,153375.97
2019-05-09T21:40:13.414Z,153382.56
2019-05-09T21:42:41.903Z,153369.41
2019-05-09T21:45:10.433Z,153337.81
2019-05-09T21:47:38.946Z,153339.11
2019-05-09T21:50:07.753Z,153357.52
2019-05-09T21:52:36.316Z,153331.20
2019-05-09T21:55:05.418Z,153343.05
2019-05-09T21:57:33.904Z,153345.66
2019-05-09T22:00:02.364Z,153311.44
2019-05-09T22:02:30.913Z,153312.75
2019-05-09T22:04:59.390Z,153324.59
2019-05-09T22:07:27.909Z,153310.13
2019-05-09T22:09:56.388Z,153304.84
2019-05-09T22:12:24.889Z,153312.75
2019-05-09T22:14:53.825Z,153294.31
2019-05-09T22:17:23.947Z,153283.77
2019-05-09T22:19:52.396Z,153273.19
2019-05-09T22:22:20.882Z,153242.91
2019-05-09T22:24:49.343Z,153245.56
2019-05-09T22:27:17.837Z,153235.03
2019-05-09T22:29:46.306Z,153224.50
2019-05-09T22:32:14.804Z,153210.00
2019-05-09T22:34:43.284Z,153213.97
2019-05-09T22:37:11.768Z,153198.16
2019-05-09T22:39:40.232Z,153152.11
2019-05-09T22:42:08.732Z,153162.63
2019-05-09T22:44:37.200Z,153149.44
2019-05-09T22:47:05.736Z,153133.66
2019-05-09T22:49:34.211Z,153119.16
2019-05-09T22:52:02.711Z,153123.14
2019-05-09T22:54:31.175Z,153124.45
2019-05-09T22:56:59.676Z,153109.98
2019-05-09T22:59:28.149Z,153096.80
2019-05-09T23:01:56.636Z,153084.95
2019-05-09T23:04:25.096Z,153100.78
2019-05-09T23:06:53.686Z,153095.48
2019-05-09T23:09:22.321Z,153096.80
2019-05-09T23:11:50.774Z,153112.61
2019-05-09T23:14:19.257Z,153090.25
2019-05-09T23:16:50.435Z,153099.47
2019-05-09T23:19:17.957Z,153083.64
2019-05-09T23:21:46.419Z,153087.58
2019-05-09T23:24:28.023Z,153095.48
2019-05-09T23:26:46.755Z,153073.13
2019-05-09T23:29:15.241Z,153086.27
2019-05-09T23:32:00.086Z,153079.72
2019-05-09T23:34:28.561Z,153075.73
2019-05-09T23:36:57.034Z,153066.53
2019-05-09T23:39:27.311Z,153045.47
2019-05-09T23:41:55.815Z,153038.92
2019-05-09T23:44:24.286Z,153052.06
2019-05-09T23:46:52.758Z,153075.73
2019-05-09T23:49:21.253Z,153075.73
2019-05-09T23:51:50.061Z,153067.83
2019-05-09T23:54:46.395Z,153061.28
2019-05-09T23:57:29.300Z,153066.53
